createdAt,value
2017-10-24T00:01:24.040Z,5.67
2017-10-24T00:03:58.759Z,6.20
2017-10-24T00:06:34.524Z,6.23
2017-10-24T00:09:09.172Z,6.60
2017-10-24T00:11:43.947Z,7.60
2017-10-24T00:14:18.488Z,7.30
2017-10-24T00:16:53.139Z,7.53
2017-10-24T00:19:27.495Z,7.93
2017-10-24T00:22:02.499Z,7.87
2017-10-24T00:24:37.395Z,8.33
2017-10-24T00:27:12.252Z,8.30
2017-10-24T00:29:47.155Z,8.10
2017-10-24T00:32:22.040Z,7.97
2017-10-24T00:34:57.543Z,6.77
2017-10-24T00:37:33.117Z,6.53
2017-10-24T00:40:07.903Z,6.80
2017-10-24T00:42:42.635Z,5.87
2017-10-24T00:45:17.484Z,6.50
2017-10-24T00:47:52.251Z,6.80
2017-10-24T00:50:26.609Z,7.50
2017-10-24T00:53:01.579Z,6.67
2017-10-24T00:55:35.872Z,6.47
2017-10-24T00:58:10.592Z,7.07
2017-10-24T01:00:45.356Z,7.77
2017-10-24T01:03:20.397Z,6.67
2017-10-24T01:05:54.995Z,8.00
2017-10-24T01:08:29.489Z,8.60
2017-10-24T01:11:04.881Z,7.30
2017-10-24T01:13:39.388Z,8.13
2017-10-24T01:16:13.796Z,6.17
2017-10-24T01:18:48.601Z,8.50
2017-10-24T01:21:23.584Z,6.90
2017-10-24T01:23:58.090Z,7.30
2017-10-24T01:26:32.576Z,8.27
2017-10-24T01:29:07.546Z,8.23
2017-10-24T01:31:42.022Z,8.13
2017-10-24T01:34:16.604Z,7.60
2017-10-24T01:36:51.800Z,8.40
2017-10-24T01:39:26.227Z,8.53
2017-10-24T01:42:00.908Z,8.43
2017-10-24T01:44:35.515Z,9.53
2017-10-24T01:47:10.393Z,8.80
2017-10-24T01:49:44.932Z,8.47
2017-10-24T01:52:18.788Z,10.20
2017-10-24T01:54:53.903Z,10.27
2017-10-24T01:57:29.116Z,10.10
2017-10-24T02:00:03.929Z,10.97
2017-10-24T02:02:38.732Z,11.80
2017-10-24T02:05:13.401Z,13.07
2017-10-24T02:07:47.934Z,12.23
2017-10-24T02:10:22.725Z,13.93
2017-10-24T02:12:57.279Z,14.03
2017-10-24T02:15:32.585Z,12.87
2017-10-24T02:18:06.860Z,13.77
2017-10-24T02:20:41.816Z,12.80
2017-10-24T02:23:17.068Z,13.77
2017-10-24T02:25:51.679Z,14.17
2017-10-24T02:28:26.521Z,15.00
2017-10-24T02:31:01.344Z,16.10
2017-10-24T02:33:36.184Z,16.67
2017-10-24T02:36:11.342Z,15.97
2017-10-24T02:38:46.009Z,16.30
2017-10-24T02:41:21.247Z,16.90
2017-10-24T02:43:55.768Z,17.23
2017-10-24T02:46:30.866Z,16.87
2017-10-24T02:49:05.632Z,18.70
2017-10-24T02:51:39.981Z,18.00
2017-10-24T02:54:14.973Z,18.23
2017-10-24T02:56:51.311Z,20.83
2017-10-24T02:59:26.464Z,22.50
2017-10-24T03:02:01.088Z,21.00
2017-10-24T03:04:35.774Z,23.97
2017-10-24T03:07:10.472Z,23.30
2017-10-24T03:09:45.256Z,24.67
2017-10-24T03:12:19.752Z,23.90
2017-10-24T03:14:54.808Z,27.27
2017-10-24T03:17:29.657Z,26.63
2017-10-24T03:20:04.421Z,25.37
2017-10-24T03:22:38.879Z,26.97
2017-10-24T03:25:13.872Z,28.00
2017-10-24T03:27:48.401Z,28.70
2017-10-24T03:30:23.237Z,30.10
2017-10-24T03:32:58.225Z,28.90
2017-10-24T03:35:33.588Z,30.07
2017-10-24T03:38:08.465Z,30.50
2017-10-24T03:40:43.140Z,30.27
2017-10-24T03:43:18.872Z,31.50
2017-10-24T03:45:53.568Z,31.60
2017-10-24T03:48:28.785Z,32.80
2017-10-24T03:51:03.826Z,31.33
2017-10-24T03:53:38.486Z,31.10
2017-10-24T03:56:13.892Z,27.43
2017-10-24T03:58:48.484Z,30.37
2017-10-24T04:01:23.245Z,29.00
2017-10-24T04:03:57.576Z,29.63
2017-10-24T04:06:32.393Z,33.60
2017-10-24T04:09:07.328Z,30.63
2017-10-24T04:11:41.855Z,30.33
2017-10-24T04:14:16.376Z,29.90
2017-10-24T04:16:50.936Z,32.00
2017-10-24T04:19:25.664Z,29.73
2017-10-24T04:22:00.132Z,29.30
2017-10-24T04:24:34.757Z,30.73
2017-10-24T04:27:09.232Z,31.40
2017-10-24T04:29:44.248Z,30.47
2017-10-24T04:32:18.691Z,29.87
2017-10-24T04:34:53.273Z,30.40
2017-10-24T04:37:27.900Z,30.00
2017-10-24T04:40:02.814Z,29.10
2017-10-24T04:42:38.792Z,31.50
2017-10-24T04:45:13.292Z,31.27
2017-10-24T04:47:48.029Z,29.40
2017-10-24T04:50:22.730Z,30.17
2017-10-24T04:52:57.633Z,29.13
2017-10-24T04:55:32.485Z,30.37
2017-10-24T04:58:07.027Z,30.57
2017-10-24T05:00:41.325Z,29.73
2017-10-24T05:03:16.252Z,27.80
2017-10-24T05:05:51.025Z,26.87
2017-10-24T05:08:25.736Z,27.20
2017-10-24T05:11:00.385Z,27.70
2017-10-24T05:13:35.020Z,27.20
2017-10-24T05:16:09.765Z,27.50
2017-10-24T05:18:44.494Z,27.90
2017-10-24T05:21:19.144Z,27.30
2017-10-24T05:23:54.168Z,27.83
2017-10-24T05:26:28.580Z,28.00
2017-10-24T05:29:03.261Z,27.90
2017-10-24T05:31:37.936Z,25.53
2017-10-24T05:34:12.681Z,30.60
2017-10-24T05:36:47.288Z,26.07
2017-10-24T05:39:21.661Z,28.40
2017-10-24T05:41:57.828Z,28.57
2017-10-24T05:44:32.452Z,26.33
2017-10-24T05:47:07.337Z,27.70
2017-10-24T05:49:41.932Z,25.60
2017-10-24T05:52:16.861Z,28.00
2017-10-24T05:54:51.407Z,27.20
2017-10-24T05:57:26.510Z,28.70
2017-10-24T06:00:01.049Z,26.80
2017-10-24T06:02:35.528Z,26.50
2017-10-24T06:05:10.533Z,26.47
2017-10-24T06:07:47.063Z,26.77
2017-10-24T06:10:21.684Z,25.83
2017-10-24T06:12:56.488Z,26.60
2017-10-24T06:15:31.261Z,25.63
2017-10-24T06:18:06.044Z,26.73
2017-10-24T06:20:40.581Z,25.73
2017-10-24T06:23:15.328Z,26.20
2017-10-24T06:25:51.181Z,25.47
2017-10-24T06:28:26.132Z,24.70
2017-10-24T06:31:01.368Z,25.77
2017-10-24T06:33:36.440Z,27.77
2017-10-24T06:36:11.148Z,26.73
2017-10-24T06:38:45.580Z,26.17
2017-10-24T06:41:20.258Z,25.80
2017-10-24T06:43:54.744Z,25.63
2017-10-24T06:46:29.444Z,23.47
2017-10-24T06:49:04.721Z,22.77
2017-10-24T06:51:39.244Z,22.80
2017-10-24T06:54:13.960Z,23.10
2017-10-24T06:56:48.708Z,23.70
2017-10-24T06:59:23.385Z,24.03
2017-10-24T07:01:58.048Z,22.83
2017-10-24T07:04:32.680Z,22.70
2017-10-24T07:07:07.789Z,22.07
2017-10-24T07:09:42.505Z,21.33
2017-10-24T07:12:17.141Z,21.77
2017-10-24T07:14:51.803Z,19.70
2017-10-24T07:17:26.703Z,19.80
2017-10-24T07:20:01.352Z,21.00
2017-10-24T07:22:36.268Z,20.40
2017-10-24T07:25:10.976Z,19.67
2017-10-24T07:27:45.745Z,19.27
2017-10-24T07:30:20.431Z,17.87
2017-10-24T07:32:55.212Z,19.00
2017-10-24T07:35:29.866Z,19.60
2017-10-24T07:38:04.655Z,19.07
2017-10-24T07:40:39.564Z,18.07
2017-10-24T07:43:13.984Z,18.37
2017-10-24T07:45:48.582Z,18.13
2017-10-24T07:48:23.552Z,17.17
2017-10-24T07:50:58.215Z,17.33
2017-10-24T07:53:33.025Z,18.93
2017-10-24T07:56:07.740Z,16.40
2017-10-24T07:58:42.604Z,16.63
2017-10-24T08:01:17.150Z,15.87
2017-10-24T08:03:51.888Z,12.70
2017-10-24T08:06:27.301Z,14.87
2017-10-24T08:09:02.028Z,16.70
2017-10-24T08:11:36.855Z,15.57
2017-10-24T08:14:13.380Z,14.63
2017-10-24T08:16:48.945Z,14.57
2017-10-24T08:19:23.782Z,13.87
2017-10-24T08:21:58.415Z,15.30
2017-10-24T08:24:33.143Z,13.50
2017-10-24T08:27:07.884Z,14.10
2017-10-24T08:29:43.536Z,12.20
2017-10-24T08:32:18.208Z,12.80
2017-10-24T08:34:52.960Z,14.80
2017-10-24T08:37:27.769Z,15.23
2017-10-24T08:40:02.620Z,13.10
2017-10-24T08:42:38.320Z,14.90
2017-10-24T08:45:12.752Z,14.70
2017-10-24T08:47:47.745Z,11.90
2017-10-24T08:50:22.365Z,14.10
2017-10-24T08:52:57.561Z,13.87
2017-10-24T08:55:32.190Z,14.00
2017-10-24T08:58:07.168Z,13.53
2017-10-24T09:00:41.423Z,12.87
2017-10-24T09:03:16.166Z,13.20
2017-10-24T09:08:53.827Z,14.23
2017-10-24T09:11:39.908Z,13.30
2017-10-24T09:14:17.923Z,11.30
2017-10-24T09:16:57.143Z,12.53
2017-10-24T09:20:02.268Z,11.07
2017-10-24T09:22:37.524Z,11.73
2017-10-24T09:25:12.412Z,11.20
2017-10-24T09:27:47.009Z,11.93
2017-10-24T09:30:21.888Z,8.90
2017-10-24T09:32:56.592Z,11.37
2017-10-24T09:35:31.137Z,9.93
2017-10-24T09:38:06.257Z,10.97
2017-10-24T09:40:40.681Z,10.73
2017-10-24T09:43:15.369Z,10.57
2017-10-24T09:45:49.515Z,10.67
2017-10-24T09:48:24.720Z,10.70
2017-10-24T09:51:07.044Z,9.90
2017-10-24T09:53:41.591Z,10.60
2017-10-24T09:56:33.160Z,10.70
2017-10-24T09:59:22.389Z,11.67
2017-10-24T10:01:57.669Z,12.60
2017-10-24T10:04:32.273Z,9.23
2017-10-24T10:07:13.856Z,11.40
2017-10-24T10:09:49.085Z,10.97
2017-10-24T10:12:23.504Z,11.93
2017-10-24T10:14:58.559Z,11.10
2017-10-24T10:17:33.612Z,10.30
2017-10-24T10:20:08.126Z,11.37
2017-10-24T10:22:43.045Z,11.47
2017-10-24T10:25:17.788Z,11.50
2017-10-24T10:27:52.575Z,12.27
2017-10-24T10:30:27.135Z,12.43
2017-10-24T10:33:02.312Z,12.00
2017-10-24T10:35:37.164Z,10.90
2017-10-24T10:38:11.464Z,12.20
2017-10-24T10:40:46.500Z,12.80
2017-10-24T10:43:20.908Z,11.70
2017-10-24T10:45:55.368Z,13.83
2017-10-24T10:48:30.657Z,13.20
2017-10-24T10:51:05.517Z,12.90
2017-10-24T10:53:40.362Z,14.33
2017-10-24T10:56:15.106Z,14.30
2017-10-24T10:58:49.573Z,13.10
2017-10-24T11:01:24.296Z,15.30
2017-10-24T11:03:59.353Z,16.33
2017-10-24T11:06:33.748Z,13.93
2017-10-24T11:09:08.692Z,14.80
2017-10-24T11:11:43.945Z,14.93
2017-10-24T11:14:18.620Z,14.33
2017-10-24T11:16:53.441Z,13.90
2017-10-24T11:19:28.364Z,17.67
2017-10-24T11:22:03.232Z,15.63
2017-10-24T11:24:38.100Z,16.63
2017-10-24T11:27:13.032Z,15.63
2017-10-24T11:29:47.808Z,15.67
2017-10-24T11:32:22.544Z,16.83
2017-10-24T11:34:57.411Z,16.03
2017-10-24T11:37:32.196Z,16.40
2017-10-24T11:40:06.888Z,17.00
2017-10-24T11:42:41.651Z,17.37
2017-10-24T11:45:16.601Z,15.60
2017-10-24T11:47:51.060Z,14.93
2017-10-24T11:50:25.965Z,13.00
2017-10-24T11:53:01.515Z,15.87
2017-10-24T11:55:36.178Z,15.10
2017-10-24T11:58:11.036Z,15.70
2017-10-24T12:00:45.595Z,14.67
2017-10-24T12:03:19.960Z,14.90
2017-10-24T12:05:55.008Z,16.07
2017-10-24T12:08:29.613Z,14.53
2017-10-24T12:11:04.451Z,15.87
2017-10-24T12:13:38.841Z,17.20
2017-10-24T12:16:13.672Z,14.77
2017-10-24T12:18:48.440Z,15.83
2017-10-24T12:21:23.307Z,15.53
2017-10-24T12:23:58.010Z,13.03
2017-10-24T12:26:32.861Z,15.90
2017-10-24T12:29:07.964Z,15.23
2017-10-24T12:31:42.941Z,14.20
2017-10-24T12:34:17.852Z,16.40
2017-10-24T12:36:52.808Z,15.37
2017-10-24T12:39:27.440Z,16.20
2017-10-24T12:42:02.072Z,17.70
2017-10-24T12:44:38.143Z,16.13
2017-10-24T12:47:15.953Z,15.57
2017-10-24T12:49:54.096Z,14.90
2017-10-24T12:52:29.132Z,15.13
2017-10-24T12:55:04.208Z,14.53
2017-10-24T12:57:39.598Z,14.80
2017-10-24T13:00:16.278Z,15.10
2017-10-24T13:02:50.844Z,14.73
2017-10-24T13:05:25.497Z,15.30
2017-10-24T13:08:00.275Z,15.03
2017-10-24T13:10:34.936Z,16.50
2017-10-24T13:13:09.633Z,15.70
2017-10-24T13:15:44.117Z,15.67
2017-10-24T13:18:18.987Z,15.40
2017-10-24T13:20:53.801Z,15.43
2017-10-24T13:23:28.500Z,15.60
2017-10-24T13:26:03.954Z,15.40
2017-10-24T13:28:39.028Z,16.07
2017-10-24T13:31:13.869Z,15.23
2017-10-24T13:33:48.652Z,14.40
2017-10-24T13:36:23.511Z,14.60
2017-10-24T13:38:58.372Z,16.00
2017-10-24T13:41:33.148Z,14.60
2017-10-24T13:44:08.159Z,13.73
2017-10-24T13:46:43.773Z,15.10
2017-10-24T13:49:18.536Z,13.73
2017-10-24T13:51:53.313Z,15.00
2017-10-24T13:54:28.045Z,14.50
2017-10-24T13:57:02.868Z,14.07
2017-10-24T13:59:37.605Z,16.80
2017-10-24T14:02:12.165Z,14.97
2017-10-24T14:04:52.234Z,14.80
2017-10-24T14:07:32.026Z,15.50
2017-10-24T14:10:11.845Z,16.47
2017-10-24T14:12:47.142Z,16.27
2017-10-24T14:15:21.976Z,15.70
2017-10-24T14:17:56.854Z,17.20
2017-10-24T14:20:31.501Z,16.60
2017-10-24T14:23:07.162Z,15.90
2017-10-24T14:25:42.846Z,17.60
2017-10-24T14:28:17.556Z,16.07
2017-10-24T14:30:52.342Z,16.93
2017-10-24T14:33:27.193Z,17.57
2017-10-24T14:36:01.920Z,18.17
2017-10-24T14:38:36.792Z,18.03
2017-10-24T14:41:12.460Z,17.07
2017-10-24T14:43:47.236Z,17.87
2017-10-24T14:46:22.600Z,16.90
2017-10-24T14:48:57.427Z,15.60
2017-10-24T14:51:32.172Z,18.40
2017-10-24T14:54:06.879Z,15.33
2017-10-24T14:56:41.293Z,17.53
2017-10-24T14:59:16.339Z,17.37
2017-10-24T15:01:51.093Z,18.00
2017-10-24T15:04:25.923Z,17.90
2017-10-24T15:07:00.834Z,15.70
2017-10-24T15:09:35.658Z,15.67
2017-10-24T15:12:10.260Z,15.60
2017-10-24T15:14:45.165Z,17.77
2017-10-24T15:17:19.969Z,16.33
2017-10-24T15:19:54.772Z,16.27
2017-10-24T15:22:29.541Z,16.70
2017-10-24T15:25:04.096Z,16.47
2017-10-24T15:27:39.073Z,16.30
2017-10-24T15:30:13.964Z,17.50
2017-10-24T15:32:48.690Z,15.73
2017-10-24T15:35:23.316Z,16.20
2017-10-24T15:37:58.460Z,16.50
2017-10-24T15:40:33.821Z,15.90
2017-10-24T15:43:08.672Z,15.10
2017-10-24T15:45:43.380Z,15.73
2017-10-24T15:48:18.136Z,16.60
2017-10-24T15:50:53.204Z,14.97
2017-10-24T15:53:28.230Z,16.43
2017-10-24T15:56:02.789Z,15.80
2017-10-24T15:58:37.467Z,16.33
2017-10-24T16:01:12.533Z,14.20
2017-10-24T16:03:47.663Z,13.80
2017-10-24T16:06:22.284Z,15.30
2017-10-24T16:08:57.380Z,17.87
2017-10-24T16:11:32.191Z,15.33
2017-10-24T16:14:07.285Z,15.10
2017-10-24T16:16:41.896Z,14.80
2017-10-24T16:19:16.581Z,14.60
2017-10-24T16:21:51.584Z,15.93
2017-10-24T16:24:26.440Z,16.53
2017-10-24T16:27:01.353Z,14.90
2017-10-24T16:29:35.965Z,15.53
2017-10-24T16:32:10.668Z,15.80
2017-10-24T16:34:45.516Z,15.60
2017-10-24T16:37:20.533Z,13.30
2017-10-24T16:39:55.269Z,14.73
2017-10-24T16:42:30.244Z,15.47
2017-10-24T16:45:04.729Z,14.27
2017-10-24T16:47:39.464Z,16.00
2017-10-24T16:50:14.265Z,17.67
2017-10-24T16:52:49.048Z,13.50
2017-10-24T16:55:23.848Z,14.93
2017-10-24T16:57:58.760Z,16.63
2017-10-24T17:00:33.712Z,16.10
2017-10-24T17:03:08.632Z,15.80
2017-10-24T17:05:43.476Z,16.00
2017-10-24T17:08:18.501Z,17.57
2017-10-24T17:10:53.418Z,16.73
2017-10-24T17:13:28.180Z,18.47
2017-10-24T17:16:03.143Z,17.67
2017-10-24T17:18:38.657Z,20.40
2017-10-24T17:21:13.200Z,20.00
2017-10-24T17:23:48.082Z,19.20
2017-10-24T17:26:22.716Z,19.20
2017-10-24T17:28:57.677Z,18.90
2017-10-24T17:31:32.073Z,18.13
2017-10-24T17:34:07.108Z,21.13
2017-10-24T17:36:41.880Z,18.43
2017-10-24T17:39:16.264Z,21.10
2017-10-24T17:41:51.181Z,19.73
2017-10-24T17:44:25.939Z,16.57
2017-10-24T17:47:00.824Z,21.00
2017-10-24T17:49:35.561Z,19.33
2017-10-24T17:52:10.168Z,18.27
2017-10-24T17:54:44.936Z,19.03
2017-10-24T17:57:19.709Z,22.00
2017-10-24T17:59:54.368Z,20.13
2017-10-24T18:02:29.044Z,20.83
2017-10-24T18:05:03.988Z,20.97
2017-10-24T18:07:38.449Z,18.20
2017-10-24T18:10:13.302Z,19.20
2017-10-24T18:12:48.148Z,18.40
2017-10-24T18:15:22.884Z,17.37
2017-10-24T18:17:57.636Z,12.00
2017-10-24T18:20:32.224Z,16.00
2017-10-24T18:23:06.991Z,21.23
2017-10-24T18:25:41.629Z,12.80
2017-10-24T18:28:16.529Z,12.30
2017-10-24T18:30:51.162Z,14.10
2017-10-24T18:33:26.084Z,13.30
2017-10-24T18:36:00.441Z,11.40
2017-10-24T18:38:35.583Z,13.27
2017-10-24T18:41:10.315Z,14.00
2017-10-24T18:43:44.828Z,13.47
2017-10-24T18:46:19.638Z,13.20
2017-10-24T18:48:54.190Z,10.47
2017-10-24T18:51:28.724Z,13.23
2017-10-24T18:54:03.740Z,12.90
2017-10-24T18:56:38.545Z,11.87
2017-10-24T18:59:13.133Z,14.00
2017-10-24T19:01:47.836Z,13.10
2017-10-24T19:04:22.468Z,13.50
2017-10-24T19:06:57.408Z,11.80
2017-10-24T19:09:32.400Z,14.63
2017-10-24T19:12:07.316Z,14.40
2017-10-24T19:14:42.652Z,14.80
2017-10-24T19:17:17.612Z,10.93
2017-10-24T19:19:52.849Z,11.60
2017-10-24T19:22:27.895Z,12.43
2017-10-24T19:25:02.900Z,11.43
2017-10-24T19:27:38.839Z,14.87
2017-10-24T19:30:13.781Z,22.53
2017-10-24T19:32:49.135Z,20.47
2017-10-24T19:35:23.875Z,19.07
2017-10-24T19:37:58.105Z,17.07
2017-10-24T19:40:33.024Z,16.20
2017-10-24T19:43:08.133Z,18.67
2017-10-24T19:45:42.504Z,20.37
2017-10-24T19:48:17.332Z,18.97
2017-10-24T19:50:51.931Z,20.67
2017-10-24T19:53:27.292Z,20.57
2017-10-24T19:56:02.421Z,19.60
2017-10-24T19:58:37.495Z,21.73
2017-10-24T20:01:12.192Z,22.73
2017-10-24T20:03:47.120Z,21.97
2017-10-24T20:06:21.961Z,21.77
2017-10-24T20:08:57.064Z,21.30
2017-10-24T20:11:31.932Z,23.23
2017-10-24T20:14:07.544Z,24.93
2017-10-24T20:16:42.550Z,23.43
2017-10-24T20:19:17.856Z,22.17
2017-10-24T20:21:52.881Z,24.93
2017-10-24T20:24:28.132Z,25.70
2017-10-24T20:27:02.688Z,25.20
2017-10-24T20:29:37.484Z,23.00
2017-10-24T20:32:12.626Z,25.70
2017-10-24T20:34:47.377Z,25.73
2017-10-24T20:37:22.445Z,24.40
2017-10-24T20:39:57.475Z,26.10
2017-10-24T20:42:32.104Z,23.83
2017-10-24T20:45:07.361Z,26.20
2017-10-24T20:47:42.440Z,25.53
2017-10-24T20:50:16.867Z,25.00
2017-10-24T20:52:51.836Z,26.13
2017-10-24T20:55:26.872Z,25.23
2017-10-24T20:58:01.802Z,27.53
2017-10-24T21:00:36.603Z,25.20
2017-10-24T21:03:11.729Z,25.80
2017-10-24T21:05:46.935Z,25.60
2017-10-24T21:08:21.988Z,24.83
2017-10-24T21:10:56.617Z,24.00
2017-10-24T21:13:31.691Z,25.67
2017-10-24T21:16:06.548Z,27.70
2017-10-24T21:18:41.449Z,26.23
2017-10-24T21:21:16.222Z,24.47
2017-10-24T21:23:51.280Z,24.53
2017-10-24T21:26:26.317Z,27.03
2017-10-24T21:29:01.983Z,25.43
2017-10-24T21:31:36.837Z,26.17
2017-10-24T21:34:11.989Z,27.03
2017-10-24T21:36:46.884Z,25.70
2017-10-24T21:39:21.784Z,24.70
2017-10-24T21:41:57.115Z,23.97
2017-10-24T21:44:32.084Z,25.57
2017-10-24T21:47:07.411Z,25.60
2017-10-24T21:49:42.940Z,22.80
2017-10-24T21:52:17.908Z,23.30
2017-10-24T21:54:53.159Z,22.17
2017-10-24T21:57:28.915Z,22.67
2017-10-24T22:00:03.176Z,21.97
2017-10-24T22:02:37.994Z,21.80
2017-10-24T22:05:13.392Z,21.80
2017-10-24T22:07:48.453Z,22.93
2017-10-24T22:10:23.696Z,22.67
2017-10-24T22:12:58.533Z,22.10
2017-10-24T22:15:33.531Z,23.50
2017-10-24T22:18:08.389Z,22.40
2017-10-24T22:20:43.613Z,24.97
2017-10-24T22:23:18.550Z,23.87
2017-10-24T22:25:53.112Z,24.90
2017-10-24T22:28:27.342Z,26.20
2017-10-24T22:31:02.524Z,26.97
2017-10-24T22:33:37.661Z,26.37
2017-10-24T22:36:12.504Z,27.33
2017-10-24T22:38:47.316Z,27.57
2017-10-24T22:41:22.020Z,26.77
2017-10-24T22:43:56.932Z,27.30
2017-10-24T22:46:31.953Z,25.57
2017-10-24T22:49:07.060Z,26.93
2017-10-24T22:51:42.403Z,27.00
2017-10-24T22:54:17.228Z,26.13
2017-10-24T22:56:51.853Z,26.10
2017-10-24T22:59:26.864Z,26.27
2017-10-24T23:02:01.621Z,25.47
2017-10-24T23:04:36.321Z,25.30
2017-10-24T23:07:11.900Z,20.10
2017-10-24T23:09:47.328Z,24.27
2017-10-24T23:12:22.136Z,26.03
2017-10-24T23:14:57.070Z,22.90
2017-10-24T23:17:31.928Z,23.27
2017-10-24T23:20:07.080Z,22.50
2017-10-24T23:22:41.852Z,22.37
2017-10-24T23:25:17.184Z,23.20
2017-10-24T23:27:51.897Z,22.03
2017-10-24T23:30:27.139Z,24.03
2017-10-24T23:33:02.403Z,21.73
2017-10-24T23:35:37.168Z,22.07
2017-10-24T23:38:12.321Z,21.30
2017-10-24T23:40:47.072Z,21.63
2017-10-24T23:43:22.100Z,22.10
2017-10-24T23:45:57.237Z,22.90
2017-10-24T23:48:32.581Z,22.63
2017-10-24T23:51:07.951Z,21.37
2017-10-24T23:53:42.796Z,22.50
2017-10-24T23:56:17.524Z,21.20
2017-10-24T23:58:52.248Z,21.27
